Data for 06/28/2017

Time Sea-Level Adjusted Pressure Absolute Pressure Temperature Relative Humidity Dew Point   
(mb) (inHg) (mb) (inHg) (C) (F) (%) (C) (F)
00:05 1015 29.97 844 24.92 12 53.6 71 6.9 44.4
00:10 1015 29.97 844 24.92 11.7 53 72 6.8 44.2
00:15 1015 29.97 844 24.92 11.7 53 72 6.7 44.1
00:20 1015 29.97 844 24.92 11.6 52.9 68 6 42.8
00:25 1015 29.97 844 24.92 12.1 53.8 67 6.2 43.1
00:30 1015 29.97 844 24.92 12.1 53.8 67 6.3 43.3
00:35 1015 29.97 844 24.92 12.4 54.3 64 5.9 42.5
00:40 1015 29.97 844 24.92 12.5 54.6 65 6.2 43.2
00:45 1015 29.97 844 24.92 12.2 53.9 68 6.4 43.6
00:50 1015 29.97 844 24.92 11.6 52.8 71 6.5 43.7
00:55 1015 29.97 844 24.92 11 51.8 72 6.2 43.2
01:00 1015 29.97 844 24.92 10.7 51.3 73 6.2 43.1
01:05 1015 29.97 844 24.92 10.6 51 73 5.9 42.6
01:10 1015 29.97 844 24.92 10.6 51.1 72 5.8 42.4
01:15 1015 29.97 844 24.92 10.6 51.2 71 5.7 42.2
01:20 1015 29.97 844 24.92 10.9 51.7 71 5.8 42.5
01:25 1015 29.97 844 24.92 10.9 51.6 71 5.9 42.7
01:30 1015 29.97 844 24.92 10.7 51.3 71 5.8 42.4
01:35 1015 29.97 844 24.92 10.6 51.2 71 5.6 42
01:40 1015 29.97 844 24.92 10.6 51.1 72 5.8 42.4
01:45 1015 29.97 844 24.92 10.5 50.8 72 5.7 42.3
01:50 1015 29.97 844 24.92 10.4 50.7 70 5.2 41.4
01:55 1014 29.94 844 24.92 10.5 50.9 71 5.6 42.1
02:00 1014 29.94 844 24.92 10.3 50.6 71 5.4 41.8
02:05 1014 29.94 844 24.92 10.3 50.5 68 4.6 40.3
02:10 1014 29.94 843 24.89 10.7 51.3 69 5.3 41.6
02:15 1014 29.94 843 24.89 10.6 51.2 69 5.3 41.5
02:20 1014 29.94 844 24.92 10.5 51 70 5.4 41.7
02:25 1014 29.94 843 24.89 10.3 50.5 72 5.4 41.7
02:30 1014 29.94 843 24.89 10 50 72 5.3 41.5
02:35 1014 29.94 843 24.89 9.9 49.7 73 5.3 41.5
02:40 1014 29.94 843 24.89 9.6 49.2 76 5.5 41.9
02:45 1014 29.94 843 24.89 9.1 48.4 76 5.2 41.3
02:50 1014 29.94 843 24.89 9.2 48.5 75 5.1 41.1
02:55 1014 29.94 843 24.89 9.2 48.6 74 4.9 40.8
03:00 1014 29.94 843 24.89 9.4 48.9 72 4.7 40.5
03:05 1014 29.94 843 24.89 9.5 49.2 73 4.9 40.9
03:10 1014 29.94 843 24.89 9.6 49.3 71 4.7 40.4
03:15 1014 29.94 843 24.89 9.8 49.7 70 4.7 40.5
03:20 1014 29.94 843 24.89 9.9 49.7 70 4.6 40.3
03:25 1014 29.94 843 24.89 10 50 70 4.9 40.8
03:30 1014 29.94 843 24.89 9.7 49.4 73 5.1 41.1
03:35 1014 29.94 843 24.89 9.5 49.2 72 4.8 40.6
03:40 1014 29.94 843 24.89 9.7 49.4 72 4.8 40.6
03:45 1014 29.94 843 24.89 9.8 49.7 72 5.1 41.1
03:50 1014 29.94 843 24.89 9.7 49.4 74 5.2 41.4
03:55 1014 29.94 843 24.89 9.6 49.3 74 5.2 41.4
04:00 1014 29.94 843 24.89 9.7 49.4 74 5.2 41.4
04:05 1014 29.94 843 24.89 9.8 49.6 73 5.1 41.3
04:10 1014 29.94 843 24.89 9.8 49.7 72 5.1 41.2
04:15 1014 29.94 844 24.92 9.8 49.7 71 4.8 40.6
04:20 1014 29.94 844 24.92 9.9 49.8 71 4.9 40.8
04:25 1014 29.94 844 24.92 10.1 50.1 68 4.4 40
04:30 1014 29.94 844 24.92 10.4 50.7 65 4.1 39.4
04:35 1014 29.94 844 24.92 10.9 51.7 63 4.2 39.6
04:40 1014 29.94 844 24.92 11.4 52.5 62 4.4 39.9
04:45 1014 29.94 844 24.92 11.3 52.3 64 4.7 40.4
04:50 1014 29.94 844 24.92 10.5 50.8 69 5 41.1
04:55 1014 29.94 844 24.92 10 50 69 4.6 40.3
05:00 1014 29.94 844 24.92 10.4 50.6 68 4.7 40.5
05:05 1014 29.94 844 24.92 10 49.9 69 4.5 40
05:10 1014 29.94 844 24.92 10.4 50.7 66 4.4 39.9
05:15 1014 29.94 844 24.92 10.3 50.6 68 4.8 40.6
05:20 1014 29.94 844 24.92 10.4 50.6 69 5 41
05:25 1014 29.94 844 24.92 10.1 50.2 70 5 41
05:30 1014 29.94 844 24.92 9.9 49.8 72 5.1 41.2
05:35 1014 29.94 844 24.92 9.9 49.8 71 5 41
05:40 1014 29.94 844 24.92 10 50 71 5 40.9
05:45 1014 29.94 844 24.92 10.2 50.3 70 4.9 40.8
05:50 1014 29.94 844 24.92 10.2 50.3 70 5 41.1
05:55 1015 29.97 844 24.92 9.9 49.8 71 5 40.9
06:00 1015 29.97 844 24.92 9.8 49.6 71 4.9 40.8
06:05 1015 29.97 844 24.92 9.9 49.8 70 4.7 40.4
06:10 1015 29.97 844 24.92 10.2 50.4 68 4.7 40.4
06:15 1015 29.97 844 24.92 10.6 51.1 67 4.7 40.5
06:20 1015 29.97 844 24.92 10.9 51.7 67 5.1 41.1
06:25 1015 29.97 844 24.92 11 51.9 68 5.4 41.7
06:30 1015 29.97 844 24.92 11.5 52.6 66 5.3 41.6
06:35 1015 29.97 844 24.92 11.9 53.3 65 5.5 42
06:40 1015 29.97 844 24.92 12.4 54.3 62 5.5 41.9
06:45 1015 29.97 844 24.92 12.5 54.6 63 5.8 42.5
06:50 1015 29.97 844 24.92 12.8 55.1 61 5.6 42
06:55 1015 29.97 844 24.92 13.2 55.8 60 5.8 42.4
07:00 1015 29.97 844 24.92 13.6 56.4 59 5.9 42.6
07:05 1015 29.97 844 24.92 14.1 57.3 57 5.9 42.6
07:10 1015 29.97 844 24.92 14 57.3 59 6.2 43.1
07:15 1015 29.97 844 24.92 14.4 57.9 58 6.4 43.6
07:20 1015 29.97 844 24.92 14.7 58.4 57 6.3 43.4
07:25 1015 29.97 844 24.92 15 58.9 58 6.8 44.3
07:30 1014 29.94 844 24.92 15.4 59.6 57 7 44.6
07:35 1014 29.94 844 24.92 16.1 60.9 53 6.6 43.9
07:40 1014 29.94 844 24.92 16.4 61.6 53 6.8 44.2
07:45 1014 29.94 844 24.92 16.7 62 50 6.5 43.6
07:50 1014 29.94 844 24.92 17 62.5 48 6 42.8
07:55 1014 29.94 844 24.92 17.8 64 46 6.3 43.3
08:00 1014 29.94 844 24.92 18 64.5 45 5.9 42.7
08:05 1014 29.94 844 24.92 18.1 64.6 44 5.8 42.4
08:10 1014 29.94 844 24.92 18.4 65.1 44 5.9 42.7
08:15 1014 29.94 844 24.92 18.2 64.8 45 6.2 43.2
08:20 1014 29.94 843 24.89 18.2 64.7 44 5.8 42.5
08:25 1014 29.94 843 24.89 18.8 65.8 42 5.6 42.1
08:30 1014 29.94 843 24.89 18.5 65.3 43 5.7 42.3
08:35 1014 29.94 843 24.89 19.3 66.7 41 5.7 42.2
08:40 1014 29.94 843 24.89 19.6 67.3 40 5.8 42.4
08:45 1014 29.94 843 24.89 19.6 67.3 38 5.2 41.3
08:50 1014 29.94 843 24.89 19.7 67.5 39 5.5 41.9
08:55 1014 29.94 843 24.89 19.9 67.8 39 5.6 42
09:00 1014 29.94 843 24.89 19.8 67.7 41 6.2 43.2
09:05 1014 29.94 843 24.89 19.9 67.9 39 5.6 42.1
09:10 1014 29.94 843 24.89 19.9 67.8 42 6.8 44.2
09:15 1014 29.94 843 24.89 20 68 41 6.4 43.5
09:20 1014 29.94 843 24.89 19.8 67.7 43 7.2 45
09:25 1014 29.94 843 24.89 19.5 67.1 41 5.9 42.7
09:30 1014 29.94 843 24.89 19.7 67.5 43 6.8 44.2
09:35 1014 29.94 843 24.89 19.7 67.5 43 6.9 44.4
09:40 1014 29.94 843 24.89 19.6 67.3 38 5.1 41.2
09:45 1014 29.94 843 24.89 19.5 67.1 39 5.5 42
09:50 1014 29.94 843 24.89 19.2 66.5 38 4.6 40.2
09:55 1014 29.94 843 24.89 19.2 66.6 39 5.2 41.4
10:00 1014 29.94 843 24.89 19.6 67.3 42 6.4 43.5
10:05 1014 29.94 843 24.89 19.7 67.5 41 6.3 43.4
10:10 1014 29.94 843 24.89 19.2 66.6 44 6.7 44.1
10:15 1014 29.94 843 24.89 19.5 67.2 40 5.6 42.1
10:20 1014 29.94 843 24.89 19.5 67.1 43 6.7 44
10:25 1014 29.94 843 24.89 19.6 67.3 40 5.9 42.5
10:30 1014 29.94 843 24.89 19.8 67.6 37 4.7 40.5
10:35 1014 29.94 843 24.89 19.9 67.8 37 5.1 41.1
10:40 1014 29.94 843 24.89 20.1 68.1 37 5.2 41.3
10:45 1014 29.94 843 24.89 19.7 67.5 38 5.2 41.4
10:50 1014 29.94 843 24.89 19.6 67.2 39 5.4 41.8
10:55 1014 29.94 843 24.89 19.9 67.8 38 5.2 41.3
11:00 1014 29.94 843 24.89 19.7 67.5 39 5.5 41.9
11:05 1014 29.94 843 24.89 19.8 67.7 38 5.3 41.5
11:10 1014 29.94 843 24.89 19.7 67.4 38 5 40.9
11:15 1014 29.94 843 24.89 20.3 68.6 38 5.7 42.2
11:20 1014 29.94 843 24.89 20.3 68.5 38 5.8 42.5
11:25 1014 29.94 843 24.89 20.4 68.6 36 4.9 40.8
11:30 1014 29.94 843 24.89 20.6 69 34 4.3 39.8
11:35 1014 29.94 843 24.89 20.5 68.9 33 4 39.1
11:40 1013 29.91 843 24.89 20.2 68.3 36 4.6 40.4
11:45 1013 29.91 843 24.89 20.6 69.1 33 3.9 39.1
11:50 1013 29.91 843 24.89 21.5 70.7 33 4.6 40.3
11:55 1013 29.91 842 24.86 21.4 70.4 34 4.8 40.7
12:00 1013 29.91 842 24.86 22.1 71.7 32 4.7 40.5
12:05 1013 29.91 842 24.86 22.1 71.8 34 5.7 42.3
12:10 1013 29.91 842 24.86 21.9 71.4 33 5.1 41.2
12:15 1013 29.91 842 24.86 21.3 70.3 36 5.8 42.5
12:20 1013 29.91 842 24.86 20 68 39 5.7 42.3
12:25 1013 29.91 842 24.86 19.5 67.1 43 6.6 43.8
12:30 1013 29.91 842 24.86 18.5 65.2 47 6.9 44.5
12:35 1013 29.91 842 24.86 17.4 63.3 50 7 44.6
12:40 1013 29.91 842 24.86 17.3 63.2 54 8.1 46.6
12:45 1013 29.91 842 24.86 18.4 65 43 5.6 42
12:50 1013 29.91 842 24.86 19.4 66.8 42 6.3 43.3
12:55 1013 29.91 842 24.86 19.7 67.4 40 6 42.8
13:00 1013 29.91 842 24.86 19.3 66.8 40 5.5 42
13:05 1013 29.91 842 24.86 20.1 68.3 32 2.9 37.3
13:10 1013 29.91 843 24.89 18.7 65.6 32 1.9 35.4
13:15 1013 29.91 843 24.89 17.6 63.7 33 1.2 34.2
13:20 1013 29.91 843 24.89 16.8 62.2 36 1.8 35.2
13:25 1013 29.91 843 24.89 16.1 60.9 37 1.4 34.6
13:30 1013 29.91 842 24.86 15.8 60.5 41 2.6 36.6
13:35 1013 29.91 842 24.86 15.6 60.1 43 3.1 37.6
13:40 1013 29.91 842 24.86 15.6 60.1 41 2.3 36.2
13:45 1013 29.91 843 24.89 15.9 60.7 40 2.3 36.1
13:50 1014 29.94 843 24.89 16.3 61.3 38 2.1 35.8
13:55 1014 29.94 843 24.89 16.5 61.7 39 2.7 36.8
14:00 1015 29.97 844 24.92 16.8 62.3 39 3 37.3
14:05 1015 29.97 844 24.92 16.5 61.7 49 5.8 42.5
14:10 1015 29.97 844 24.92 15.3 59.6 56 6.7 44.1
14:15 1015 29.97 844 24.92 14.2 57.6 65 7.8 46
14:20 1015 29.97 844 24.92 13.8 56.8 66 7.5 45.5
14:25 1015 29.97 844 24.92 13.5 56.3 69 8 46.5
14:30 1015 29.97 844 24.92 13.9 57 62 6.8 44.2
14:35 1015 29.97 844 24.92 14.5 58.1 63 7.5 45.6
14:40 1015 29.97 844 24.92 14.6 58.3 67 8.5 47.3
14:45 1014 29.94 843 24.89 14.9 58.9 46 3.4 38.1
14:50 1014 29.94 843 24.89 15.9 60.7 43 3.4 38.1
14:55 1014 29.94 843 24.89 15.9 60.7 39 2 35.7
15:00 1014 29.94 843 24.89 16.1 61 56 7.5 45.5
15:05 1013 29.91 843 24.89 15.2 59.3 39 1.4 34.5
15:10 1014 29.94 843 24.89 16.2 61.2 43 3.9 38.9
15:15 1014 29.94 843 24.89 15.9 60.6 49 5.3 41.5
15:20 1014 29.94 843 24.89 15.5 59.8 52 5.8 42.4
15:25 1014 29.94 843 24.89 15.5 59.9 55 6.7 44
15:30 1014 29.94 843 24.89 15.9 60.6 53 6.5 43.7
15:35 1014 29.94 843 24.89 16.2 61.1 52 6.5 43.7
15:40 1014 29.94 843 24.89 16.6 61.8 50 6.1 43.1
15:45 1014 29.94 843 24.89 16.6 61.9 48 5.8 42.4
15:50 1014 29.94 843 24.89 16.4 61.5 50 5.9 42.7
15:55 1014 29.94 843 24.89 16.3 61.3 47 5.1 41.3
16:00 1014 29.94 843 24.89 16.4 61.5 50 6 42.8
16:05 1014 29.94 843 24.89 16.6 61.8 46 4.9 40.8
16:10 1014 29.94 843 24.89 16.8 62.2 45 4.9 40.9
16:15 1014 29.94 843 24.89 17.1 62.8 46 5.5 42
16:20 1014 29.94 843 24.89 17.2 63 48 6.2 43.1
16:25 1014 29.94 843 24.89 16.9 62.5 49 6.2 43.1
16:30 1014 29.94 843 24.89 17 62.6 46 5.5 41.9
16:35 1014 29.94 843 24.89 17 62.6 45 5 40.9
16:40 1014 29.94 843 24.89 17.1 62.7 47 5.7 42.2
16:45 1014 29.94 843 24.89 17.3 63.2 44 5 40.9
16:50 1014 29.94 843 24.89 17.2 62.9 44 4.9 40.9
16:55 1014 29.94 843 24.89 17.4 63.2 46 5.6 42.1
17:00 1014 29.94 843 24.89 17.4 63.3 46 5.8 42.4
17:05 1014 29.94 843 24.89 17.8 64 44 5.4 41.7
17:10 1014 29.94 843 24.89 18.2 64.8 43 5.4 41.7
17:15 1014 29.94 843 24.89 18 64.4 46 6.3 43.4
17:20 1014 29.94 843 24.89 17.6 63.6 47 6.1 43
17:25 1014 29.94 843 24.89 17.4 63.3 48 6.4 43.6
17:30 1014 29.94 843 24.89 17.3 63.2 49 6.6 43.8
17:35 1014 29.94 843 24.89 17.2 62.9 48 6.3 43.3
17:40 1014 29.94 843 24.89 17.3 63.2 48 6.2 43.2
17:45 1014 29.94 843 24.89 17.3 63.2 48 6.2 43.2
17:50 1014 29.94 843 24.89 17 62.6 46 5.5 42
17:55 1014 29.94 843 24.89 16.7 62 48 5.7 42.2
18:00 1014 29.94 843 24.89 16.5 61.7 50 6 42.8
18:05 1014 29.94 843 24.89 16.4 61.5 50 6 42.9
18:10 1014 29.94 843 24.89 16.2 61.1 50 5.8 42.5
18:15 1014 29.94 843 24.89 16 60.9 52 6.3 43.4
18:20 1014 29.94 843 24.89 16 60.7 53 6.5 43.7
18:25 1014 29.94 843 24.89 15.8 60.5 53 6.3 43.3
18:30 1014 29.94 843 24.89 15.7 60.3 53 6.3 43.3
18:35 1014 29.94 843 24.89 15.7 60.2 54 6.5 43.6
18:40 1014 29.94 844 24.92 15.5 59.9 53 6.2 43.2
18:45 1014 29.94 844 24.92 15.4 59.8 54 6.2 43.2
18:50 1014 29.94 844 24.92 15.4 59.7 52 5.6 42.1
18:55 1015 29.97 844 24.92 15.4 59.7 53 6 42.9
19:00 1015 29.97 844 24.92 15.4 59.6 53 6 42.8
19:05 1015 29.97 844 24.92 15.2 59.4 54 6.2 43.2
19:10 1015 29.97 844 24.92 15.1 59.2 55 6.2 43.2
19:15 1015 29.97 844 24.92 15.1 59.1 56 6.3 43.4
19:20 1015 29.97 844 24.92 15 59 56 6.3 43.3
19:25 1015 29.97 844 24.92 15 58.9 56 6.3 43.3
19:30 1015 29.97 844 24.92 14.9 58.9 56 6.3 43.3
19:35 1015 29.97 844 24.92 14.8 58.7 57 6.3 43.4
19:40 1015 29.97 844 24.92 14.7 58.5 57 6.3 43.4
19:45 1015 29.97 844 24.92 14.6 58.3 57 6.4 43.5
19:50 1015 29.97 844 24.92 14.5 58.2 57 6.1 43.1
19:55 1015 29.97 844 24.92 14.5 58.1 58 6.3 43.4
20:00 1015 29.97 844 24.92 14.4 57.8 58 6.3 43.3
20:05 1015 29.97 844 24.92 14.2 57.6 58 6.1 42.9
20:10 1015 29.97 844 24.92 14 57.2 58 6 42.7
20:15 1015 29.97 844 24.92 13.8 56.9 58 5.7 42.3
20:20 1015 29.97 844 24.92 13.7 56.7 58 5.7 42.3
20:25 1015 29.97 844 24.92 13.6 56.5 57 5.3 41.6
20:30 1015 29.97 844 24.92 13.5 56.4 58 5.4 41.7
20:35 1015 29.97 844 24.92 13.5 56.3 58 5.3 41.6
20:40 1015 29.97 844 24.92 13.5 56.2 56 5 40.9
20:45 1015 29.97 844 24.92 13.5 56.3 56 5 40.9
20:50 1015 29.97 844 24.92 13.5 56.3 57 5.1 41.2
20:55 1015 29.97 845 24.95 13.5 56.3 56 4.9 40.9
21:00 1016 30 845 24.95 13.6 56.5 55 4.8 40.7
21:05 1016 30 845 24.95 13.8 56.9 54 4.7 40.5
21:10 1016 30 845 24.95 14.1 57.4 53 4.6 40.3
21:15 1016 30 845 24.95 14.3 57.7 54 5.1 41.3
21:20 1016 30 845 24.95 14.2 57.6 40 0.8 33.5
21:25 1015 29.97 845 24.95 14.4 58 54 5.3 41.5
21:30 1016 30 845 24.95 13.8 56.9 59 6 42.8
21:35 1016 30 845 24.95 13.8 56.8 56 5.1 41.2
21:40 1016 30 845 24.95 13.8 56.9 56 5.3 41.5
21:45 1016 30 845 24.95 13.8 56.8 57 5.3 41.6
21:50 1016 30 845 24.95 13.6 56.4 60 5.9 42.7
21:55 1016 30 845 24.95 13.3 55.9 59 5.4 41.7
22:00 1016 30 845 24.95 13.2 55.8 59 5.5 41.9
22:05 1016 30 845 24.95 13 55.5 60 5.6 42.1
22:10 1016 30 845 24.95 12.9 55.3 62 5.9 42.7
22:15 1017 30.03 846 24.98 12.9 55.2 65 6.4 43.5
22:20 1017 30.03 846 24.98 12.9 55.1 63 6.1 42.9
22:25 1017 30.03 846 24.98 12.8 55.1 65 6.5 43.7
22:30 1017 30.03 847 25.01 12.4 54.2 70 7 44.7
22:35 1018 30.06 847 25.01 11.8 53.2 70 6.4 43.6
22:40 1018 30.06 847 25.01 11.5 52.6 68 5.8 42.5
22:45 1018 30.06 847 25.01 11.4 52.5 68 5.8 42.5
22:50 1018 30.06 847 25.01 11.4 52.5 70 6.1 43
22:55 1019 30.09 848 25.04 11.4 52.5 71 6.4 43.5
23:00 1019 30.09 848 25.04 11.3 52.3 74 6.8 44.3
23:05 1019 30.09 848 25.04 11.1 52 78 7.4 45.3
23:10 1019 30.09 848 25.04 10.9 51.5 77 7 44.6
23:15 1019 30.09 848 25.04 10.7 51.3 80 7.3 45.2
23:20 1019 30.09 848 25.04 10.5 51 80 7.3 45.1
23:25 1019 30.09 848 25.04 10.3 50.5 82 7.4 45.2
23:30 1019 30.09 848 25.04 10.1 50.1 84 7.5 45.5
23:35 1019 30.09 848 25.04 9.9 49.7 85 7.5 45.5
23:40 1019 30.09 848 25.04 9.7 49.5 86 7.4 45.3
23:45 1019 30.09 849 25.07 9.7 49.4 87 7.6 45.7
23:50 1019 30.09 849 25.07 9.6 49.2 88 7.7 45.9
23:55 1019 30.09 848 25.04 9.4 49 89 7.8 46
24:00 1019 30.09 848 25.04 9.3 48.7 89 7.6 45.7